createdAt,value
2024-02-26T00:01:21.297Z,12.10
2024-02-26T00:03:25.161Z,12.20
2024-02-26T00:05:28.192Z,12.20
2024-02-26T00:07:32.169Z,12.20
2024-02-26T00:09:37.560Z,12.10
2024-02-26T00:11:40.297Z,12.00
2024-02-26T00:13:44.281Z,11.90
2024-02-26T00:15:48.136Z,11.80
2024-02-26T00:17:53.676Z,11.80
2024-02-26T00:19:57.650Z,11.70
2024-02-26T00:22:01.505Z,11.70
2024-02-26T00:24:05.385Z,11.60
2024-02-26T00:26:10.397Z,11.60
2024-02-26T00:28:15.157Z,11.60
2024-02-26T00:30:18.880Z,11.50
2024-02-26T00:32:22.689Z,11.50
2024-02-26T00:34:28.193Z,11.40
2024-02-26T00:36:33.104Z,11.20
2024-02-26T00:38:37.302Z,11.20
2024-02-26T00:40:41.997Z,11.10
2024-02-26T00:42:47.305Z,11.10
2024-02-26T00:44:50.110Z,11.20
2024-02-26T00:46:54.216Z,11.20
2024-02-26T00:48:58.136Z,11.20
2024-02-26T00:51:03.260Z,11.30
2024-02-26T00:53:06.910Z,11.20
2024-02-26T00:55:11.668Z,11.20
2024-02-26T00:57:15.306Z,11.20
2024-02-26T00:59:19.344Z,11.10
2024-02-26T01:01:23.145Z,11.00
2024-02-26T01:03:26.667Z,11.00
2024-02-26T01:05:29.181Z,10.90
2024-02-26T01:07:37.372Z,10.90
2024-02-26T01:09:41.372Z,10.90
2024-02-26T01:11:44.901Z,10.90
2024-02-26T01:13:48.428Z,10.80
2024-02-26T01:15:51.973Z,10.90
2024-02-26T01:17:56.048Z,10.90
2024-02-26T01:19:59.607Z,10.90
2024-02-26T01:22:03.170Z,10.90
2024-02-26T01:24:08.522Z,10.90
2024-02-26T01:26:12.128Z,10.90
2024-02-26T01:28:16.110Z,10.80
2024-02-26T01:30:19.723Z,10.80
2024-02-26T01:32:23.256Z,10.90
2024-02-26T01:34:26.843Z,10.90
2024-02-26T01:36:30.415Z,10.80
2024-02-26T01:38:34.123Z,10.90
2024-02-26T01:40:38.967Z,11.00
2024-02-26T01:42:42.661Z,11.00
2024-02-26T01:44:46.464Z,11.00
2024-02-26T01:46:49.931Z,11.00
2024-02-26T01:48:55.020Z,11.10
2024-02-26T01:50:58.653Z,11.10
2024-02-26T01:53:02.264Z,11.20
2024-02-26T01:55:06.251Z,11.20
2024-02-26T01:57:11.216Z,11.20
2024-02-26T01:59:15.141Z,11.10
2024-02-26T02:01:18.671Z,11.20
2024-02-26T02:03:22.156Z,11.10
2024-02-26T02:05:27.306Z,11.00
2024-02-26T02:07:29.985Z,11.00
2024-02-26T02:09:33.417Z,10.90
2024-02-26T02:11:36.957Z,10.80
2024-02-26T02:13:40.947Z,10.90
2024-02-26T02:15:44.516Z,11.00
2024-02-26T02:17:49.162Z,11.00
2024-02-26T02:19:53.036Z,11.10
2024-02-26T02:21:57.817Z,11.10
2024-02-26T02:24:01.226Z,11.20
2024-02-26T02:26:04.822Z,11.30
2024-02-26T02:28:08.714Z,11.40
2024-02-26T02:30:13.011Z,11.40
2024-02-26T02:32:16.560Z,11.50
2024-02-26T02:34:20.123Z,11.50
2024-02-26T02:36:23.741Z,11.40
2024-02-26T02:38:28.745Z,11.40
2024-02-26T02:40:32.303Z,11.50
2024-02-26T02:42:35.840Z,11.50
2024-02-26T02:44:39.324Z,11.40
2024-02-26T02:46:41.755Z,11.50
2024-02-26T02:48:46.806Z,11.50
2024-02-26T02:50:50.422Z,11.50
2024-02-26T02:52:53.916Z,11.40
2024-02-26T02:54:58.750Z,11.50
2024-02-26T02:57:02.237Z,11.40
2024-02-26T02:59:06.958Z,11.40
2024-02-26T03:01:10.597Z,11.40
2024-02-26T03:03:13.084Z,11.40
2024-02-26T03:05:18.077Z,11.50
2024-02-26T03:07:22.964Z,11.60
2024-02-26T03:09:26.598Z,11.60
2024-02-26T03:11:33.607Z,11.70
2024-02-26T03:13:37.579Z,11.70
2024-02-26T03:15:41.348Z,11.70
2024-02-26T03:17:45.128Z,11.60
2024-02-26T03:19:54.813Z,11.60
2024-02-26T03:21:58.409Z,11.60
2024-02-26T03:24:01.018Z,11.60
2024-02-26T03:26:04.955Z,11.50
2024-02-26T03:28:09.925Z,11.60
2024-02-26T03:30:13.759Z,11.50
2024-02-26T03:32:17.733Z,11.60
2024-02-26T03:34:21.561Z,11.60
2024-02-26T03:36:25.280Z,11.60
2024-02-26T03:38:29.009Z,11.50
2024-02-26T03:40:32.634Z,11.60
2024-02-26T03:42:35.419Z,11.50
2024-02-26T03:44:40.559Z,11.50
2024-02-26T03:46:44.812Z,11.60
2024-02-26T03:48:47.330Z,11.70
2024-02-26T03:50:51.097Z,11.70
2024-02-26T03:52:55.507Z,11.70
2024-02-26T03:54:59.299Z,11.70
2024-02-26T03:57:03.142Z,11.90
2024-02-26T03:59:07.417Z,11.90
2024-02-26T04:01:11.578Z,11.90
2024-02-26T04:03:15.861Z,12.00
2024-02-26T04:05:19.261Z,12.10
2024-02-26T04:07:22.717Z,12.10
2024-02-26T04:09:25.922Z,12.20
2024-02-26T04:11:29.501Z,12.20
2024-02-26T04:13:31.981Z,12.20
2024-02-26T04:15:35.730Z,12.20
2024-02-26T04:17:41.171Z,12.20
2024-02-26T04:19:44.697Z,12.20
2024-02-26T04:21:48.506Z,12.30
2024-02-26T04:23:52.095Z,12.40
2024-02-26T04:25:55.800Z,12.40
2024-02-26T04:27:59.373Z,12.40
2024-02-26T04:30:02.847Z,12.40
2024-02-26T04:32:06.910Z,12.40
2024-02-26T04:34:14.787Z,12.40
2024-02-26T04:36:19.067Z,12.30
2024-02-26T04:38:23.753Z,12.20
2024-02-26T04:40:27.576Z,12.10
2024-02-26T04:42:30.028Z,11.90
2024-02-26T04:44:33.963Z,11.80
2024-02-26T04:46:37.937Z,11.70
2024-02-26T04:48:43.181Z,11.60
2024-02-26T04:50:48.533Z,11.50
2024-02-26T04:52:52.082Z,11.40
2024-02-26T04:54:55.756Z,11.20
2024-02-26T04:57:05.002Z,11.10
2024-02-26T04:59:08.693Z,11.10
2024-02-26T05:01:12.129Z,11.10
2024-02-26T05:03:17.082Z,11.10
2024-02-26T05:05:20.949Z,11.10
2024-02-26T05:07:26.484Z,11.00
2024-02-26T05:09:30.083Z,10.90
2024-02-26T05:11:34.610Z,10.90
2024-02-26T05:13:38.153Z,10.90
2024-02-26T05:15:44.711Z,10.90
2024-02-26T05:17:48.584Z,10.90
2024-02-26T05:19:52.607Z,10.90
2024-02-26T05:21:56.287Z,10.80
2024-02-26T05:24:04.125Z,10.70
2024-02-26T05:26:10.213Z,10.70
2024-02-26T05:28:16.872Z,10.60
2024-02-26T05:30:20.483Z,10.60
2024-02-26T05:32:25.826Z,10.50
2024-02-26T05:34:31.494Z,10.50
2024-02-26T05:36:35.501Z,10.40
2024-02-26T05:38:39.123Z,10.40
2024-02-26T05:40:44.136Z,10.50
2024-02-26T05:42:50.531Z,10.40
2024-02-26T05:44:54.500Z,10.40
2024-02-26T05:46:59.572Z,10.30
2024-02-26T05:49:04.385Z,10.20
2024-02-26T05:51:12.603Z,10.20
2024-02-26T05:53:16.726Z,10.20
2024-02-26T05:55:20.663Z,10.10
2024-02-26T05:57:26.105Z,10.10
2024-02-26T06:01:31.095Z,9.90
2024-02-26T06:03:34.920Z,9.90
2024-02-26T06:05:40.323Z,9.80
2024-02-26T06:07:50.547Z,9.80
2024-02-26T06:09:55.484Z,9.70
2024-02-26T06:11:59.503Z,9.70
2024-02-26T06:14:04.834Z,9.70
2024-02-26T06:16:10.802Z,9.70
2024-02-26T06:18:14.858Z,9.60
2024-02-26T06:22:29.137Z,9.60
2024-02-26T06:24:33.222Z,9.60
2024-02-26T06:26:36.927Z,9.50
2024-02-26T06:28:42.656Z,9.50
2024-02-26T06:30:48.585Z,9.50
2024-02-26T06:32:51.645Z,9.50
2024-02-26T06:34:56.361Z,9.50
2024-02-26T06:37:00.747Z,9.50
2024-02-26T06:39:06.924Z,9.60
2024-02-26T06:45:31.719Z,9.60
2024-02-26T06:47:41.587Z,9.70
2024-02-26T06:52:35.761Z,9.70
2024-02-26T06:54:41.067Z,9.70
2024-02-26T06:56:44.826Z,9.60
2024-02-26T06:58:50.161Z,9.60
2024-02-26T07:00:54.301Z,9.60
2024-02-26T07:03:00.072Z,9.60
2024-02-26T07:09:24.889Z,9.60
2024-02-26T07:11:28.828Z,9.70
2024-02-26T07:13:33.932Z,9.60
2024-02-26T07:15:40.130Z,9.70
2024-02-26T07:18:04.859Z,9.70
2024-02-26T07:20:10.953Z,9.60
2024-02-26T07:22:16.699Z,9.50
2024-02-26T07:24:24.496Z,9.40
2024-02-26T07:26:29.753Z,9.40
2024-02-26T07:31:29.048Z,9.40
2024-02-26T07:33:52.250Z,9.40
2024-02-26T07:36:01.911Z,9.40
2024-02-26T07:38:19.938Z,9.30
2024-02-26T07:40:32.537Z,9.40
2024-02-26T07:42:43.062Z,9.30
2024-02-26T07:45:07.305Z,9.30
2024-02-26T07:47:10.836Z,9.40
2024-02-26T07:49:38.411Z,9.40
2024-02-26T07:52:26.849Z,9.40
2024-02-26T07:54:46.257Z,9.30
2024-02-26T07:57:29.935Z,9.30
2024-02-26T07:59:59.960Z,9.30
2024-02-26T08:02:22.313Z,9.30
2024-02-26T08:09:26.585Z,9.40
2024-02-26T08:11:43.232Z,9.40
2024-02-26T08:14:42.834Z,9.40
2024-02-26T08:17:26.193Z,9.40
2024-02-26T08:19:30.910Z,9.40
2024-02-26T08:21:38.415Z,9.50
2024-02-26T08:23:43.913Z,9.50
2024-02-26T08:25:59.103Z,9.50
2024-02-26T08:28:26.628Z,9.50
2024-02-26T08:30:31.548Z,9.50
2024-02-26T08:35:13.753Z,9.60
2024-02-26T08:37:18.738Z,9.60
2024-02-26T08:39:33.166Z,9.60
2024-02-26T08:42:28.049Z,9.60
2024-02-26T08:44:57.264Z,9.60
2024-02-26T08:47:27.216Z,9.50
2024-02-26T08:49:34.131Z,9.50
2024-02-26T08:51:55.155Z,9.50
2024-02-26T08:54:10.312Z,9.50
2024-02-26T08:56:20.209Z,9.50
2024-02-26T08:58:45.792Z,9.50
2024-02-26T09:00:56.252Z,9.50
2024-02-26T09:03:05.486Z,9.40
2024-02-26T09:05:09.572Z,9.40
2024-02-26T09:08:04.046Z,9.40
2024-02-26T09:10:13.638Z,9.30
2024-02-26T09:12:22.620Z,9.30
2024-02-26T09:14:30.408Z,9.30
2024-02-26T09:16:35.647Z,9.30
2024-02-26T09:18:42.730Z,9.20
2024-02-26T09:22:57.674Z,9.30
2024-02-26T09:25:02.817Z,9.20
2024-02-26T09:27:08.198Z,9.30
2024-02-26T09:29:24.916Z,9.30
2024-02-26T09:31:31.313Z,9.40
2024-02-26T09:33:36.838Z,9.60
2024-02-26T09:35:45.407Z,9.60
2024-02-26T09:37:58.585Z,9.60
2024-02-26T09:40:27.651Z,9.60
2024-02-26T09:42:42.964Z,9.70
2024-02-26T09:45:10.255Z,9.90
2024-02-26T09:47:23.822Z,10.00
2024-02-26T09:49:28.820Z,10.10
2024-02-26T09:51:56.152Z,10.20
2024-02-26T09:54:06.617Z,10.30
2024-02-26T09:56:13.067Z,10.40
2024-02-26T09:58:20.168Z,10.50
2024-02-26T10:00:37.863Z,10.50
2024-02-26T10:02:43.755Z,10.50
2024-02-26T10:04:50.614Z,10.70
2024-02-26T10:06:56.372Z,10.80
2024-02-26T10:09:01.010Z,10.90
2024-02-26T10:11:05.977Z,11.00
2024-02-26T10:13:48.548Z,11.00
2024-02-26T10:15:52.402Z,11.20
2024-02-26T10:18:01.094Z,11.40
2024-02-26T10:20:19.318Z,11.30
2024-02-26T10:22:23.354Z,11.30
2024-02-26T10:24:27.271Z,11.30
2024-02-26T10:26:31.703Z,11.30
2024-02-26T10:28:35.702Z,11.40
2024-02-26T10:30:39.942Z,11.60
2024-02-26T10:32:42.683Z,11.60
2024-02-26T10:34:51.390Z,11.80
2024-02-26T10:36:56.395Z,11.90
2024-02-26T10:39:04.142Z,11.90
2024-02-26T10:41:25.736Z,11.90
2024-02-26T10:43:55.556Z,11.80
2024-02-26T10:45:59.345Z,11.80
2024-02-26T10:48:03.697Z,11.70
2024-02-26T10:50:10.117Z,11.80
2024-02-26T10:52:13.740Z,11.80
2024-02-26T10:54:19.080Z,12.00
2024-02-26T10:56:22.811Z,12.20
2024-02-26T10:58:26.551Z,12.40
2024-02-26T11:00:31.039Z,12.50
2024-02-26T11:02:36.759Z,12.70
2024-02-26T11:04:43.625Z,12.80
2024-02-26T11:06:49.812Z,12.80
2024-02-26T11:08:54.011Z,12.90
2024-02-26T11:10:58.278Z,12.90
2024-02-26T11:13:05.068Z,12.80
2024-02-26T11:15:11.819Z,12.80
2024-02-26T11:17:18.829Z,12.80
2024-02-26T11:19:32.685Z,13.00
2024-02-26T11:21:51.376Z,13.10
2024-02-26T11:23:55.860Z,13.20
2024-02-26T11:26:01.295Z,13.20
2024-02-26T11:28:06.034Z,13.20
2024-02-26T11:30:12.101Z,13.30
2024-02-26T11:32:15.585Z,13.40
2024-02-26T11:34:21.226Z,13.60
2024-02-26T11:36:27.063Z,13.80
2024-02-26T11:38:32.708Z,13.90
2024-02-26T11:40:41.233Z,13.80
2024-02-26T11:42:47.383Z,13.80
2024-02-26T11:44:53.564Z,13.80
2024-02-26T11:47:44.609Z,13.60
2024-02-26T11:49:48.804Z,13.70
2024-02-26T11:52:09.222Z,13.70
2024-02-26T11:54:51.244Z,13.70
2024-02-26T11:56:59.950Z,13.70
2024-02-26T11:59:15.332Z,14.00
2024-02-26T12:02:30.160Z,14.20
2024-02-26T12:04:33.978Z,14.40
2024-02-26T12:06:48.893Z,14.50
2024-02-26T12:09:06.154Z,14.50
2024-02-26T12:11:19.215Z,14.70
2024-02-26T12:13:22.757Z,14.80
2024-02-26T12:15:40.585Z,14.90
2024-02-26T12:17:44.659Z,14.80
2024-02-26T12:19:48.745Z,14.80
2024-02-26T12:21:54.825Z,15.00
2024-02-26T12:24:12.242Z,15.00
2024-02-26T12:26:21.190Z,14.90
2024-02-26T12:28:27.549Z,15.10
2024-02-26T12:30:32.546Z,15.10
2024-02-26T12:32:37.536Z,15.20
2024-02-26T12:34:41.402Z,15.20
2024-02-26T12:36:45.583Z,15.30
2024-02-26T12:38:49.431Z,15.40
2024-02-26T12:40:55.278Z,15.40
2024-02-26T12:43:01.504Z,15.30
2024-02-26T12:45:11.072Z,15.10
2024-02-26T12:47:26.009Z,14.90
2024-02-26T12:49:38.525Z,14.70
2024-02-26T12:51:48.477Z,14.70
2024-02-26T12:53:54.357Z,14.60
2024-02-26T12:55:59.696Z,14.60
2024-02-26T12:58:06.883Z,14.60
2024-02-26T13:00:13.134Z,14.50
2024-02-26T13:02:44.379Z,14.70
2024-02-26T13:04:57.848Z,14.90
2024-02-26T13:07:04.828Z,15.20
2024-02-26T13:09:13.855Z,15.40
2024-02-26T13:11:31.539Z,15.70
2024-02-26T13:13:38.777Z,15.80
2024-02-26T13:15:45.168Z,15.70
2024-02-26T13:17:49.373Z,15.70
2024-02-26T13:19:56.161Z,15.60
2024-02-26T13:22:05.749Z,15.40
2024-02-26T13:24:09.504Z,15.50
2024-02-26T13:26:18.781Z,15.60
2024-02-26T13:28:29.136Z,15.60
2024-02-26T13:30:33.777Z,15.60
2024-02-26T13:33:14.611Z,15.50
2024-02-26T13:35:21.618Z,15.50
2024-02-26T13:37:30.060Z,15.70
2024-02-26T13:39:34.457Z,15.80
2024-02-26T13:41:39.337Z,15.70
2024-02-26T13:43:43.878Z,15.50
2024-02-26T13:45:50.288Z,15.50
2024-02-26T13:47:54.741Z,15.30
2024-02-26T13:50:00.215Z,15.20
2024-02-26T13:52:04.309Z,15.10
2024-02-26T13:54:07.446Z,15.20
2024-02-26T13:56:51.039Z,15.20
2024-02-26T13:58:54.801Z,15.30
2024-02-26T14:01:01.167Z,15.20
2024-02-26T14:03:05.754Z,15.30
2024-02-26T14:05:09.330Z,15.30
2024-02-26T14:07:13.997Z,15.20
2024-02-26T14:09:20.427Z,15.10
2024-02-26T14:11:24.462Z,15.30
2024-02-26T14:13:28.414Z,15.40
2024-02-26T14:15:35.018Z,15.50
2024-02-26T14:17:40.621Z,15.50
2024-02-26T14:19:46.367Z,15.40
2024-02-26T14:21:50.633Z,15.50
2024-02-26T14:24:03.460Z,15.30
2024-02-26T14:26:34.067Z,15.40
2024-02-26T14:28:42.153Z,15.50
2024-02-26T14:30:58.768Z,15.20
2024-02-26T14:33:04.516Z,15.20
2024-02-26T14:35:14.929Z,15.20
2024-02-26T14:37:22.747Z,15.20
2024-02-26T14:39:27.890Z,15.00
2024-02-26T14:41:30.979Z,15.00
2024-02-26T14:43:36.360Z,14.90
2024-02-26T14:45:41.406Z,15.00
2024-02-26T14:47:45.526Z,15.00
2024-02-26T14:49:53.149Z,15.10
2024-02-26T14:52:04.840Z,15.20
2024-02-26T14:54:09.297Z,15.30
2024-02-26T14:56:14.567Z,15.20
2024-02-26T14:58:19.279Z,15.30
2024-02-26T15:00:23.874Z,15.20
2024-02-26T15:02:28.442Z,15.30
2024-02-26T15:04:41.939Z,15.20
2024-02-26T15:06:47.843Z,15.30
2024-02-26T15:08:52.023Z,15.20
2024-02-26T15:11:16.009Z,15.20
2024-02-26T15:13:23.001Z,15.40
2024-02-26T15:15:27.235Z,15.70
2024-02-26T15:17:50.571Z,16.00
2024-02-26T15:19:54.903Z,16.20
2024-02-26T15:22:00.576Z,16.40
2024-02-26T15:24:08.210Z,16.50
2024-02-26T15:26:12.827Z,16.40
2024-02-26T15:28:17.511Z,16.40
2024-02-26T15:30:22.917Z,16.50
2024-02-26T15:32:28.414Z,16.50
2024-02-26T15:34:32.769Z,16.60
2024-02-26T15:36:37.395Z,16.80
2024-02-26T15:38:41.721Z,16.80
2024-02-26T15:40:47.985Z,16.70
2024-02-26T15:42:54.339Z,16.60
2024-02-26T15:44:58.875Z,16.50
2024-02-26T15:47:02.843Z,16.50
2024-02-26T15:49:07.775Z,16.30
2024-02-26T15:51:20.682Z,15.90
2024-02-26T15:53:25.005Z,15.70
2024-02-26T15:55:34.223Z,15.50
2024-02-26T15:57:39.811Z,15.30
2024-02-26T15:59:46.100Z,15.20
2024-02-26T16:01:54.219Z,15.10
2024-02-26T16:04:04.189Z,15.00
2024-02-26T16:08:30.079Z,15.00
2024-02-26T16:10:35.980Z,15.10
2024-02-26T16:12:41.446Z,15.40
2024-02-26T16:14:52.845Z,15.60
2024-02-26T16:17:02.042Z,15.80
2024-02-26T16:19:12.066Z,15.80
2024-02-26T16:21:16.403Z,15.80
2024-02-26T16:23:21.206Z,15.60
2024-02-26T16:25:28.319Z,15.60
2024-02-26T16:27:42.237Z,15.50
2024-02-26T16:29:46.416Z,15.40
2024-02-26T16:31:54.900Z,15.30
2024-02-26T16:34:03.504Z,15.20
2024-02-26T16:36:23.769Z,15.00
2024-02-26T16:41:18.264Z,14.80
2024-02-26T16:43:33.719Z,14.60
2024-02-26T16:45:38.268Z,14.50
2024-02-26T16:47:52.529Z,14.40
2024-02-26T16:49:56.721Z,14.30
2024-02-26T16:52:00.637Z,14.30
2024-02-26T16:54:04.720Z,14.20
2024-02-26T16:56:12.196Z,14.10
2024-02-26T16:58:19.712Z,14.00
2024-02-26T17:00:24.148Z,13.90
2024-02-26T17:02:29.987Z,13.90
2024-02-26T17:04:37.089Z,13.80
2024-02-26T17:06:41.106Z,13.70
2024-02-26T17:08:47.821Z,13.60
2024-02-26T17:11:06.732Z,13.60
2024-02-26T17:13:10.719Z,13.60
2024-02-26T17:15:16.181Z,13.60
2024-02-26T17:17:19.260Z,13.50
2024-02-26T17:19:23.171Z,13.50
2024-02-26T17:21:27.007Z,13.50
2024-02-26T17:23:33.787Z,13.40
2024-02-26T17:27:48.440Z,13.40
2024-02-26T17:29:52.700Z,13.40
2024-02-26T17:31:59.687Z,13.40
2024-02-26T17:34:04.124Z,13.30
2024-02-26T17:36:09.503Z,13.30
2024-02-26T17:38:13.702Z,13.30
2024-02-26T17:40:18.084Z,13.30
2024-02-26T17:42:25.544Z,13.30
2024-02-26T17:44:36.052Z,13.30
2024-02-26T17:46:40.198Z,13.30
2024-02-26T17:48:47.159Z,13.30
2024-02-26T17:50:54.651Z,13.20
2024-02-26T17:53:00.889Z,13.30
2024-02-26T17:55:05.512Z,13.30
2024-02-26T17:57:11.153Z,13.40
2024-02-26T17:59:17.821Z,13.40
2024-02-26T18:01:22.387Z,13.40
2024-02-26T18:03:27.021Z,13.40
2024-02-26T18:05:33.867Z,13.40
2024-02-26T18:07:40.161Z,13.40
2024-02-26T18:09:47.131Z,13.50
2024-02-26T18:11:51.523Z,13.50
2024-02-26T18:13:55.822Z,13.40
2024-02-26T18:16:00.550Z,13.40
2024-02-26T18:18:05.993Z,13.40
2024-02-26T18:20:12.634Z,13.30
2024-02-26T18:22:24.768Z,13.40
2024-02-26T18:24:40.761Z,13.30
2024-02-26T18:26:45.974Z,13.30
2024-02-26T18:28:56.351Z,13.30
2024-02-26T18:31:00.794Z,13.30
2024-02-26T18:33:06.897Z,13.30
2024-02-26T18:35:12.889Z,13.20
2024-02-26T18:37:30.786Z,13.10
2024-02-26T18:39:45.915Z,13.00
2024-02-26T18:41:50.962Z,12.90
2024-02-26T18:43:55.580Z,12.90
2024-02-26T18:46:01.834Z,12.90
2024-02-26T18:48:07.390Z,12.80
2024-02-26T18:50:12.428Z,12.80
2024-02-26T18:52:16.812Z,12.70
2024-02-26T18:54:22.355Z,12.70
2024-02-26T18:56:28.295Z,12.70
2024-02-26T18:58:31.169Z,12.80
2024-02-26T19:00:35.514Z,12.80
2024-02-26T19:02:41.122Z,12.80
2024-02-26T19:04:45.813Z,12.70
2024-02-26T19:06:49.690Z,12.70
2024-02-26T19:08:53.657Z,12.70
2024-02-26T19:11:00.771Z,12.70
2024-02-26T19:15:06.749Z,12.70
2024-02-26T19:17:12.057Z,12.60
2024-02-26T19:19:16.141Z,12.60
2024-02-26T19:21:21.573Z,12.60
2024-02-26T19:23:25.813Z,12.60
2024-02-26T19:25:30.686Z,12.50
2024-02-26T19:27:36.845Z,12.50
2024-02-26T19:29:42.238Z,12.40
2024-02-26T19:31:50.078Z,12.40
2024-02-26T19:33:55.376Z,12.40
2024-02-26T19:36:03.531Z,12.40
2024-02-26T19:38:07.933Z,12.40
2024-02-26T19:40:13.764Z,12.40
2024-02-26T19:42:18.610Z,12.40
2024-02-26T19:44:24.790Z,12.40
2024-02-26T19:46:29.488Z,12.40
2024-02-26T19:48:33.633Z,12.60
2024-02-26T19:50:40.751Z,12.60
2024-02-26T19:52:45.655Z,12.60
2024-02-26T19:54:51.861Z,12.60
2024-02-26T19:56:57.230Z,12.60
2024-02-26T19:59:06.104Z,12.50
2024-02-26T20:01:17.514Z,12.40
2024-02-26T20:03:24.307Z,12.40
2024-02-26T20:05:29.160Z,12.40
2024-02-26T20:07:33.832Z,12.40
2024-02-26T20:09:38.251Z,12.50
2024-02-26T20:11:43.226Z,12.50
2024-02-26T20:13:47.436Z,12.50
2024-02-26T20:15:51.611Z,12.50
2024-02-26T20:17:56.997Z,12.50
2024-02-26T20:20:01.205Z,12.60
2024-02-26T20:22:08.276Z,12.60
2024-02-26T20:24:14.861Z,12.60
2024-02-26T20:26:19.044Z,12.70
2024-02-26T20:28:22.890Z,12.60
2024-02-26T20:30:29.358Z,12.50
2024-02-26T20:32:35.421Z,12.50
2024-02-26T20:34:44.540Z,12.50
2024-02-26T20:36:48.465Z,12.30
2024-02-26T20:39:15.528Z,12.30
2024-02-26T20:41:19.529Z,12.30
2024-02-26T20:43:23.444Z,12.30
2024-02-26T20:45:29.492Z,12.30
2024-02-26T20:47:33.833Z,12.40
2024-02-26T20:49:37.150Z,12.40
2024-02-26T20:51:42.926Z,12.40
2024-02-26T20:53:45.884Z,12.40
2024-02-26T20:55:51.164Z,12.30
2024-02-26T20:57:55.456Z,12.30
2024-02-26T21:00:02.216Z,12.30
2024-02-26T21:02:29.745Z,12.30
2024-02-26T21:05:07.403Z,12.30
2024-02-26T21:07:13.250Z,12.20
2024-02-26T21:09:31.237Z,12.20
2024-02-26T21:11:37.235Z,12.10
2024-02-26T21:13:42.640Z,12.20
2024-02-26T21:15:48.087Z,12.20
2024-02-26T21:17:57.113Z,12.20
2024-02-26T21:20:25.794Z,12.10
2024-02-26T21:22:30.382Z,12.10
2024-02-26T21:24:35.290Z,12.20
2024-02-26T21:26:39.631Z,12.20
2024-02-26T21:28:45.377Z,12.20
2024-02-26T21:30:49.225Z,12.20
2024-02-26T21:32:56.404Z,12.20
2024-02-26T21:35:00.670Z,12.10
2024-02-26T21:37:04.696Z,12.10
2024-02-26T21:39:13.135Z,12.20
2024-02-26T21:41:20.795Z,12.20
2024-02-26T21:43:27.935Z,12.20
2024-02-26T21:45:31.885Z,12.30
2024-02-26T21:47:37.394Z,12.20
2024-02-26T21:49:41.378Z,12.20
2024-02-26T21:51:48.686Z,12.20
2024-02-26T21:53:52.446Z,12.20
2024-02-26T21:56:01.585Z,12.20
2024-02-26T21:58:07.300Z,12.20
2024-02-26T22:00:12.295Z,12.20
2024-02-26T22:02:16.823Z,12.20
2024-02-26T22:04:20.967Z,12.10
2024-02-26T22:06:25.150Z,12.10
2024-02-26T22:08:28.952Z,12.10
2024-02-26T22:10:42.463Z,12.00
2024-02-26T22:12:48.162Z,11.90
2024-02-26T22:14:55.135Z,11.90
2024-02-26T22:17:00.497Z,11.90
2024-02-26T22:19:14.045Z,12.00
2024-02-26T22:21:18.749Z,12.00
2024-02-26T22:23:22.658Z,12.10
2024-02-26T22:25:26.820Z,12.00
2024-02-26T22:27:30.564Z,12.00
2024-02-26T22:29:35.998Z,12.00
2024-02-26T22:31:40.187Z,12.00
2024-02-26T22:33:44.147Z,12.10
2024-02-26T22:35:47.244Z,12.10
2024-02-26T22:37:51.665Z,12.10
2024-02-26T22:39:55.454Z,12.00
2024-02-26T22:42:22.445Z,12.00
2024-02-26T22:44:26.512Z,12.00
2024-02-26T22:46:31.828Z,11.80
2024-02-26T22:48:39.130Z,11.80
2024-02-26T22:50:43.362Z,11.80
2024-02-26T22:52:46.605Z,11.70
2024-02-26T22:54:50.248Z,11.70
2024-02-26T22:56:54.172Z,11.70
2024-02-26T22:58:58.632Z,11.60
2024-02-26T23:01:03.624Z,11.60
2024-02-26T23:03:12.269Z,11.50
2024-02-26T23:05:16.474Z,11.50
2024-02-26T23:07:20.303Z,11.40
2024-02-26T23:09:25.189Z,11.40
2024-02-26T23:11:28.891Z,11.40
2024-02-26T23:13:32.776Z,11.40
2024-02-26T23:15:36.779Z,11.40
2024-02-26T23:17:40.997Z,11.40
2024-02-26T23:19:46.111Z,11.40
2024-02-26T23:21:50.168Z,11.30
2024-02-26T23:23:54.498Z,11.30
2024-02-26T23:25:57.113Z,11.40
2024-02-26T23:28:01.841Z,11.50
2024-02-26T23:30:06.342Z,11.40
2024-02-26T23:32:09.995Z,11.50
2024-02-26T23:38:35.894Z,11.60
2024-02-26T23:40:39.722Z,11.50
2024-02-26T23:42:43.365Z,11.50
2024-02-26T23:44:47.328Z,11.50
2024-02-26T23:46:50.949Z,11.50
2024-02-26T23:48:54.639Z,11.50
2024-02-26T23:50:58.427Z,11.50
2024-02-26T23:53:02.188Z,11.30
2024-02-26T23:55:08.017Z,11.40
2024-02-26T23:57:11.688Z,11.30
2024-02-26T23:59:15.648Z,11.30
